Flight Track Log - Related Links

Times and Time Zones

All times are in EDT time to prevent confusion due to time zone crossing. See the SWA706 flight status page for this flight to view local times or setup timezone preferences in your user account.

Time Position Orientation Groundspeed Altitude Reporting Facility
EDT Latitude Longitude Course Direction KTS MPH feet Rate Location/Type
Sat 03:11:41 PM 35.0447 -106.5739 350° North 173 199 6,400  Level Albuquerque Center
Sat 03:11:57 PM 35.0489 -106.5664 56° Northeast 147 169 6,600 935 Climbing Albuquerque Center
Sat 03:12:58 PM 35.0967 -106.5900 338° Northwest 225 259 7,600 2,410 Climbing Albuquerque Center
Sat 03:13:59 PM 35.1597 -106.6583 318° Northwest 246 283 11,500 2,976 Climbing Albuquerque Center
Sat 03:15:01 PM 35.2292 -106.6969 336° Northwest 280 322 13,700 2,293 Climbing Albuquerque Center
Sat 03:16:02 PM 35.3089 -106.7389 337° Northwest 306 352 16,200 2,634 Climbing Albuquerque Center
Sat 03:17:00 PM 35.8510 -106.9187 350° North  Level FlightAware Approximate
Sat 03:17:04 PM 35.3933 -106.7842 336° Northwest 326 375 19,100  Level Albuquerque Center
Sat 03:18:05 PM 35.4819 -106.8297 337° Northwest 340 391 20,600 1,707 Climbing Albuquerque Center
Sat 03:19:07 PM 35.5842 -106.8828 337° Northwest 388 447 22,600 2,244 Climbing Albuquerque Center
Sat 03:20:08 PM 35.7022 -106.9472 336° Northwest 408 470 25,200 2,488 Climbing Albuquerque Center
Sat 03:21:10 PM 35.8250 -107.0103 337° Northwest 422 486 27,700 2,098 Climbing Albuquerque Center
Sat 03:22:11 PM 35.9303 -107.0653 337° Northwest 427 491 29,500 1,951 Climbing Albuquerque Center
Sat 03:23:13 PM 36.0406 -107.1247 336° Northwest 429 494 31,700 1,951 Climbing Albuquerque Center
Sat 03:24:14 PM 36.1578 -107.1861 337° Northwest 429 494 33,500 1,561 Climbing Albuquerque Center
Sat 03:25:16 PM 36.2619 -107.2422 337° Northwest 427 491 34,900 1,230 Climbing Albuquerque Center
Sat 03:26:16 PM 36.3847 -107.3064 337° Northwest 429 494 36,000 541 Climbing Denver Center
Sat 03:27:18 PM 36.4878 -107.3631 336° Northwest 425 489 36,000  Level Denver Center
Sat 03:28:20 PM 36.5892 -107.4164 337° Northwest 420 483 36,000  Level Denver Center
Sat 03:29:21 PM 36.7094 -107.4817 336° Northwest 422 486 36,000  Level Denver Center
Sat 03:30:23 PM 36.8122 -107.5361 337° Northwest 418 481 36,000  Level Denver Center
Sat 03:31:24 PM 36.9319 -107.6022 336° Northwest 421 484 36,000  Level Denver Center
Sat 03:32:26 PM 37.0331 -107.6564 337° Northwest 416 479 36,000  Level Denver Center
Sat 03:33:40 PM 37.1519 -107.7219 336° Northwest 419 482 36,000  Level Denver Center
Sat 03:34:54 PM 37.2697 -107.7861 337° Northwest 414 476 36,000  Level Denver Center
Sat 03:35:56 PM 37.4039 -107.8594 337° Northwest 412 474 36,000  Level Denver Center
Sat 03:36:57 PM 37.5214 -107.9239 336° Northwest 412 474 36,000  Level Denver Center
Sat 03:37:59 PM 37.6222 -107.9778 337° Northwest 410 472 36,000  Level Denver Center
Sat 03:39:00 PM 37.7233 -108.0367 335° Northwest 416 479 36,000  Level Denver Center
Sat 03:40:02 PM 37.8417 -108.1014 337° Northwest 417 480 36,000  Level Denver Center
Sat 03:41:04 PM 37.9422 -108.1586 336° Northwest 414 476 36,000  Level Denver Center
Sat 03:42:05 PM 38.0611 -108.2233 337° Northwest 416 479 36,000  Level Denver Center
Sat 03:43:07 PM 38.1589 -108.2783 336° Northwest 413 475 36,000 585 Level Denver Center
Sat 03:44:08 PM 38.2767 -108.3456 336° Northwest 414 476 37,200 976 Climbing Denver Center
Sat 03:45:10 PM 38.3792 -108.4031 336° Northwest 421 484 38,000 387 Climbing Denver Center
Sat 03:46:12 PM 38.4786 -108.4597 336° Northwest 410 472 38,000  Level Denver Center
Sat 03:47:13 PM 38.5947 -108.5264 336° Northwest 406 467 38,000  Level Denver Center
Sat 03:48:15 PM 38.6947 -108.5831 336° Northwest 409 471 38,000  Level Denver Center
Sat 03:49:16 PM 38.8122 -108.6497 336° Northwest 412 474 38,000  Level Denver Center
Sat 03:50:18 PM 38.9119 -108.7078 336° Northwest 411 473 38,000  Level Denver Center
Sat 03:51:20 PM 39.0278 -108.7750 336° Northwest 408 470 38,000  Level Denver Center
Sat 03:52:21 PM 39.1064 -108.8747 315° West 418 481 38,000  Level Denver Center
Sat 03:53:23 PM 39.1744 -108.9886 308° West 418 481 38,000  Level Denver Center
Sat 03:54:24 PM 39.2522 -109.1228 307° West 419 482 38,000  Level Denver Center
Sat 03:55:26 PM 39.3231 -109.2319 310° West 413 475 38,000  Level Denver Center
Sat 03:56:28 PM 39.3933 -109.3408 310° West 411 473 38,000  Level Denver Center
Sat 03:57:29 PM 39.4758 -109.4675 310° West 410 472 38,000  Level Denver Center
Sat 03:58:31 PM 39.5461 -109.5767 310° West 410 472 38,000  Level Denver Center
Sat 03:59:33 PM 39.6289 -109.7053 310° West 413 475 38,000  Level Denver Center
Sat 04:00:31 PM 39.6994 -109.8147 310° West 411 473 38,000  Level Salt Lake Center
Sat 04:01:32 PM 39.7700 -109.9253 310° West 413 475 38,000  Level Salt Lake Center
Sat 04:02:34 PM 39.8519 -110.0536 310° West 413 475 38,000  Level Salt Lake Center
Sat 04:03:35 PM 39.9217 -110.1614 310° West 407 468 38,000  Level Salt Lake Center
Sat 04:04:37 PM 39.9900 -110.2706 309° West 405 466 38,000  Level Salt Lake Center
Sat 04:05:38 PM 40.0694 -110.3972 309° West 404 465 38,000  Level Salt Lake Center
Sat 04:06:39 PM 40.1386 -110.5072 309° West 406 467 38,000  Level Salt Lake Center
Sat 04:07:41 PM 40.2061 -110.6158 309° West 403 464 38,000  Level Salt Lake Center
Sat 04:08:42 PM 40.2878 -110.7439 310° West 409 471 38,000  Level Salt Lake Center
Sat 04:09:43 PM 40.3525 -110.8500 309° West 409 471 38,000  Level Salt Lake Center
Sat 04:10:45 PM 40.4247 -110.9658 309° West 410 472 38,000  Level Salt Lake Center
Sat 04:11:46 PM 40.5108 -111.1067 309° West 412 474 38,000  Level Salt Lake Center
Sat 04:12:47 PM 40.5822 -111.2228 309° West 410 472 38,000  Level Salt Lake Center
Sat 04:13:48 PM 40.6542 -111.3392 309° West 409 471 38,000  Level Salt Lake Center
Sat 04:14:50 PM 40.7247 -111.4550 309° West 404 465 38,000  Level Salt Lake Center
Sat 04:15:51 PM 40.7947 -111.5711 309° West 405 466 38,000  Level Salt Lake Center
Sat 04:16:52 PM 40.8642 -111.6886 308° West 404 465 38,000  Level Salt Lake Center
Sat 04:17:53 PM 40.9319 -111.8108 306° West 408 470 38,000  Level Salt Lake Center
Sat 04:18:55 PM 40.9997 -111.9389 305° West 412 474 38,000  Level Salt Lake Center
Sat 04:19:56 PM 41.0692 -112.0606 307° West 408 470 38,000  Level Salt Lake Center
Sat 04:20:57 PM 41.1361 -112.1822 306° West 406 467 38,000  Level Salt Lake Center
Sat 04:21:58 PM 41.2025 -112.3022 306° West 404 465 38,000  Level Salt Lake Center
Sat 04:23:00 PM 41.2692 -112.4239 306° West 405 466 38,000  Level Salt Lake Center
Sat 04:24:01 PM 41.3347 -112.5433 306° West 404 465 38,000  Level Salt Lake Center
Sat 04:25:02 PM 41.3989 -112.6622 306° West 393 452 38,000  Level Salt Lake Center
Sat 04:26:03 PM 41.4792 -112.8075 306° West 406 467 38,000  Level Salt Lake Center
Sat 04:27:05 PM 41.5419 -112.9281 305° West 397 457 38,000  Level Salt Lake Center
Sat 04:28:06 PM 41.6064 -113.0483 306° West 396 456 38,000  Level Salt Lake Center
Sat 04:29:07 PM 41.6742 -113.1706 307° West 407 468 38,000  Level Salt Lake Center
Sat 04:30:08 PM 41.7386 -113.2925 305° West 405 466 38,000  Level Salt Lake Center
Sat 04:31:09 PM 41.8033 -113.4142 306° West 401 461 38,000  Level Salt Lake Center
Sat 04:32:11 PM 41.8683 -113.5358 306° West 401 461 38,000  Level Salt Lake Center
Sat 04:33:12 PM 41.9342 -113.6619 305° West 409 471 38,000  Level Salt Lake Center
Sat 04:34:13 PM 42.0003 -113.7881 305° West 413 475 38,000  Level Salt Lake Center
Sat 04:35:14 PM 42.0653 -113.9147 305° West 413 475 38,000  Level Salt Lake Center
Sat 04:36:15 PM 42.1444 -114.0644 306° West 411 473 38,000  Level Salt Lake Center
Sat 04:37:17 PM 42.2089 -114.1897 305° West 408 470 38,000  Level Salt Lake Center
Sat 04:38:18 PM 42.2739 -114.3183 304° West 412 474 38,000  Level Salt Lake Center
Sat 04:39:19 PM 42.3386 -114.4419 305° West 404 465 38,000  Level Salt Lake Center
Sat 04:40:20 PM 42.4025 -114.5694 304° West 408 470 38,000  Level Salt Lake Center
Sat 04:41:22 PM 42.4675 -114.6947 305° West 405 466 38,000  Level Salt Lake Center
Sat 04:42:23 PM 42.5308 -114.8225 304° West 407 468 38,000  Level Salt Lake Center
Sat 04:43:24 PM 42.6044 -114.9686 304° West 410 472 38,000  Level Salt Lake Center
Sat 04:44:26 PM 42.6647 -115.0892 304° West 403 464 38,000  Level Salt Lake Center
Sat 04:45:27 PM 42.7258 -115.2103 305° West 403 464 38,000  Level Salt Lake Center
Sat 04:46:28 PM 42.7956 -115.3508 304° West 401 461 38,000  Level Salt Lake Center
Sat 04:47:30 PM 42.8547 -115.4708 304° West 397 457 38,000  Level Salt Lake Center
Sat 04:48:31 PM 42.9136 -115.5903 304° West 398 458 38,000  Level Salt Lake Center
Sat 04:49:32 PM 42.9808 -115.7261 304° West 389 448 38,000  Level Salt Lake Center
Sat 04:50:34 PM 43.0392 -115.8439 304° West 390 449 38,000  Level Salt Lake Center
Sat 04:51:35 PM 43.1069 -115.9858 303° West 393 452 38,000  Level Salt Lake Center
Sat 04:52:36 PM 43.1661 -116.1078 304° West 398 458 38,000  Level Salt Lake Center
Sat 04:53:38 PM 43.2231 -116.2253 304° West 388 447 38,000  Level Salt Lake Center
Sat 04:54:39 PM 43.2903 -116.3661 303° West 394 453 38,000  Level Salt Lake Center
Sat 04:55:41 PM 43.3478 -116.4864 303° West 392 451 38,000  Level Salt Lake Center
Sat 04:56:42 PM 43.4144 -116.6269 303° West 393 452 38,000  Level Salt Lake Center
Sat 04:57:43 PM 43.4717 -116.7475 303° West 393 452 38,000  Level Salt Lake Center
Sat 04:58:45 PM 43.5297 -116.8692 303° West 397 457 38,000  Level Salt Lake Center
Sat 04:59:46 PM 43.5969 -117.0119 303° West 398 458 38,000  Level Salt Lake Center
Sat 05:00:47 PM 43.6536 -117.1344 303° West 396 456 38,000  Level Salt Lake Center
Sat 05:01:49 PM 43.7111 -117.2575 303° West 397 457 38,000  Level Salt Lake Center
Sat 05:02:50 PM 43.7783 -117.3997 303° West 396 456 38,000  Level Salt Lake Center
Sat 05:03:52 PM 43.8347 -117.5225 303° West 395 455 38,000  Level Salt Lake Center
Sat 05:04:53 PM 43.9006 -117.6669 302° West 396 456 38,000  Level Salt Lake Center
Sat 05:05:54 PM 43.9578 -117.7903 303° West 397 457 38,000  Level Salt Lake Center
Sat 05:06:56 PM 44.0139 -117.9133 302° West 395 455 38,000  Level Salt Lake Center
Sat 05:07:57 PM 44.0794 -118.0586 302° West 397 457 38,000  Level Salt Lake Center
Sat 05:08:58 PM 44.1358 -118.1817 303° West 393 452 38,000  Level Salt Lake Center
Sat 05:10:00 PM 44.2014 -118.3294 302° West 400 460 38,000  Level Salt Lake Center
Sat 05:11:01 PM 44.2572 -118.4525 302° West 397 457 38,000  Level Salt Lake Center
Sat 05:11:31 PM 44.2808 -118.5047 302° West 399 459 38,000  Level Seattle Center
Sat 05:12:32 PM 44.3386 -118.6353 302° West 396 456 38,000  Level Seattle Center
Sat 05:13:33 PM 44.4089 -118.7917 302° West 399 459 38,000  Level Seattle Center
Sat 05:14:34 PM 44.4664 -118.9231 302° West 398 458 38,000  Level Seattle Center
Sat 05:15:35 PM 44.5236 -119.0533 302° West 395 455 38,000  Level Seattle Center
Sat 05:16:36 PM 44.5817 -119.1889 301° West 398 458 38,000  Level Seattle Center
Sat 05:17:37 PM 44.6397 -119.3189 302° West 400 460 38,000  Level Seattle Center
Sat 05:18:37 PM 44.6969 -119.4522 301° West 399 459 38,000  Level Seattle Center
Sat 05:19:38 PM 44.7528 -119.5853 301° West 397 457 38,000  Level Seattle Center
Sat 05:20:39 PM 44.8114 -119.7200 302° West 401 461 38,000 -344 Level Seattle Center
Sat 05:21:40 PM 44.8686 -119.8558 301° West 401 461 37,300 -885 Descending Seattle Center
Sat 05:22:41 PM 44.9358 -120.0142 301° West 416 479 36,200 -836 Descending Seattle Center
Sat 05:23:42 PM 44.9936 -120.1528 301° West 425 489 35,600 -1,328 Descending Seattle Center
Sat 05:24:43 PM 45.0508 -120.2872 301° West 405 466 33,500 -2,066 Descending Seattle Center
Sat 05:25:44 PM 45.1083 -120.4239 301° West 404 465 31,400 -1,884 Descending Seattle Center
Sat 05:26:44 PM 45.1636 -120.5572 300° West 399 459 29,700 -1,835 Descending Seattle Center
Sat 05:27:45 PM 45.2183 -120.6881 301° West 389 448 27,700 -1,918 Descending Seattle Center
Sat 05:28:46 PM 45.2703 -120.8164 300° West 381 438 25,800 -1,820 Descending Seattle Center
Sat 05:29:47 PM 45.3214 -120.9394 301° West 368 423 24,000 -1,820 Descending Seattle Center
Sat 05:30:48 PM 45.3717 -121.0619 300° West 362 417 22,100 -1,820 Descending Seattle Center
Sat 05:31:49 PM 45.4200 -121.1822 300° West 355 409 20,300 -1,884 Descending Seattle Center
Sat 05:32:49 PM 45.4428 -121.3125 284° West 344 396 18,300 -2,804 Descending Seattle Center
Sat 05:33:21 PM 45.4553 -121.4050 281° West 356 410 16,000 -2,754 Descending Seattle Center
Sat 05:33:50 PM 45.4603 -121.4506 279° West 351 404 15,500 -1,701 Descending Seattle Center
Sat 05:34:28 PM 45.4736 -121.5639 280° West 343 395 14,100 -1,770 Descending Seattle Center
Sat 05:34:51 PM 45.4786 -121.6100 279° West 343 395 13,700 -1,522 Descending Seattle Center
Sat 05:35:35 PM 45.4886 -121.6967 279° West 312 359 12,400 -1,869 Descending Seattle Center
Sat 05:35:52 PM 45.4931 -121.7325 280° West 320 368 11,800 -1,672 Descending Seattle Center
Sat 05:36:36 PM 45.5031 -121.8267 279° West 305 351 10,700 -1,475 Descending Seattle Center
Sat 05:36:53 PM 45.5017 -121.8497 265° West 302 348 10,300 -1,800 Descending Seattle Center
Sat 05:37:36 PM 45.5044 -121.9372 273° West 273 314 8,900 -1,900 Descending Seattle Center
Sat 05:37:53 PM 45.5033 -121.9603 266° West 282 325 8,400 -1,869 Descending Seattle Center
Sat 05:38:37 PM 45.5044 -122.0422 271° West 272 313 7,000 -1,869 Descending Seattle Center
Sat 05:38:54 PM 45.5072 -122.0717 278° West 283 326 6,500 -1,418 Descending Seattle Center
Sat 05:39:32 PM 45.5078 -122.1428 271° West 270 311 5,700 -1,082 Descending Seattle Center
Sat 05:39:55 PM 45.5094 -122.1750 274° West 270 311 5,400 -250 Descending Seattle Center
Sat 05:40:44 PM 45.4964 -122.2461 255° West 191 220 5,400 -612 Level Seattle Center
Sat 05:41:33 PM 45.4853 -122.2969 253° West 166 191 4,400 -1,233 Descending Seattle Center
Sat 05:41:57 PM 45.4839 -122.3206 265° West 179 206 3,900 -1,180 Descending Seattle Center
Sat 05:42:34 PM 45.5028 -122.3608 304° West 181 208 3,200 -1,100 Descending Seattle Center
Sat 05:42:57 PM 45.5108 -122.3828 298° West 177 204 2,800 -885 Descending Seattle Center
Sat 05:43:35 PM 45.5253 -122.4192 300° West 168 193 2,300 -787 Descending Seattle Center
Sat 05:43:58 PM 45.5336 -122.4375 303° West 167 192 2,000 -714 Descending Seattle Center
Sat 05:44:59 PM 45.5531 -122.4872 299° West 157 181 1,300 -709 Descending Seattle Center
Sat 05:45:48 PM 45.5672 -122.5286 296° West 138 159 700 -443 Descending Seattle Center
Sat 05:47:01 PM 45.5897 -122.5822 301° West 146 168 400 -247 Descending Seattle Center

Login

Don't have an account? Register now (free) for customized features, flight alerts, and more!